sensor_id;sensor_type;location;lat;lon;timestamp;pressure;altitude;pressure_sealevel;temperature;humidity
57452;BME280;66031;51.224;-0.164;2023-02-12T00:00:43;102993.88;;;18.34;31.65
57452;BME280;66031;51.224;-0.164;2023-02-12T00:03:09;102996.02;;;18.78;31.34
57452;BME280;66031;51.224;-0.164;2023-02-12T00:05:36;102996.65;;;18.64;31.42
57452;BME280;66031;51.224;-0.164;2023-02-12T00:07:59;102989.95;;;18.52;31.54
57452;BME280;66031;51.224;-0.164;2023-02-12T00:10:25;102989.87;;;18.42;31.59
57452;BME280;66031;51.224;-0.164;2023-02-12T00:12:52;102993.19;;;18.51;31.47
57452;BME280;66031;51.224;-0.164;2023-02-12T00:15:15;102990.89;;;18.40;31.57
57452;BME280;66031;51.224;-0.164;2023-02-12T00:17:41;102991.58;;;18.10;31.60
57452;BME280;66031;51.224;-0.164;2023-02-12T00:20:08;102993.33;;;18.34;31.55
57452;BME280;66031;51.224;-0.164;2023-02-12T00:22:32;102991.40;;;18.31;31.52
57452;BME280;66031;51.224;-0.164;2023-02-12T00:24:58;102987.98;;;18.75;31.59
57452;BME280;66031;51.224;-0.164;2023-02-12T00:27:23;102989.93;;;18.18;31.63
57452;BME280;66031;51.224;-0.164;2023-02-12T00:29:48;102989.82;;;18.25;31.47
57452;BME280;66031;51.224;-0.164;2023-02-12T00:32:13;102994.51;;;18.46;31.48
57452;BME280;66031;51.224;-0.164;2023-02-12T00:34:39;102996.27;;;18.15;31.55
57452;BME280;66031;51.224;-0.164;2023-02-12T00:37:04;102994.76;;;18.41;31.45
57452;BME280;66031;51.224;-0.164;2023-02-12T00:39:29;102998.88;;;18.11;31.54
57452;BME280;66031;51.224;-0.164;2023-02-12T00:41:56;103000.07;;;18.06;31.51
57452;BME280;66031;51.224;-0.164;2023-02-12T00:44:20;102997.12;;;18.01;31.57
57452;BME280;66031;51.224;-0.164;2023-02-12T00:46:46;102994.51;;;18.22;31.53
57452;BME280;66031;51.224;-0.164;2023-02-12T00:49:11;102992.68;;;18.46;31.52
57452;BME280;66031;51.224;-0.164;2023-02-12T00:51:36;102989.10;;;18.16;31.58
57452;BME280;66031;51.224;-0.164;2023-02-12T00:54:02;102990.78;;;18.12;31.57
57452;BME280;66031;51.224;-0.164;2023-02-12T00:56:27;102993.84;;;18.38;31.56
57452;BME280;66031;51.224;-0.164;2023-02-12T00:58:53;102987.84;;;18.11;31.53
57452;BME280;66031;51.224;-0.164;2023-02-12T01:01:18;102988.89;;;18.09;31.54
57452;BME280;66031;51.224;-0.164;2023-02-12T01:03:44;102992.83;;;18.03;31.59
57452;BME280;66031;51.224;-0.164;2023-02-12T01:06:09;102988.35;;;18.25;31.58
57452;BME280;66031;51.224;-0.164;2023-02-12T01:08:34;102987.83;;;18.06;31.46
57452;BME280;66031;51.224;-0.164;2023-02-12T01:11:02;102985.12;;;18.00;31.48
57452;BME280;66031;51.224;-0.164;2023-02-12T01:13:26;102986.12;;;18.00;31.38
57452;BME280;66031;51.224;-0.164;2023-02-12T01:16:01;102992.38;;;17.95;31.54
57452;BME280;66031;51.224;-0.164;2023-02-12T01:18:16;102989.10;;;17.85;31.35
57452;BME280;66031;51.224;-0.164;2023-02-12T01:20:41;102985.91;;;18.29;31.29
57452;BME280;66031;51.224;-0.164;2023-02-12T01:23:07;102987.42;;;18.21;31.38
57452;BME280;66031;51.224;-0.164;2023-02-12T01:25:32;102985.46;;;18.20;31.38
57452;BME280;66031;51.224;-0.164;2023-02-12T01:27:57;102983.35;;;18.15;31.37
57452;BME280;66031;51.224;-0.164;2023-02-12T01:30:23;102984.94;;;18.27;31.23
57452;BME280;66031;51.224;-0.164;2023-02-12T01:32:48;102991.17;;;18.17;31.32
57452;BME280;66031;51.224;-0.164;2023-02-12T01:35:13;102986.53;;;18.16;31.28
57452;BME280;66031;51.224;-0.164;2023-02-12T01:37:40;102977.19;;;17.94;31.23
57452;BME280;66031;51.224;-0.164;2023-02-12T01:40:06;102972.47;;;17.69;31.20
57452;BME280;66031;51.224;-0.164;2023-02-12T01:42:30;102975.05;;;18.12;31.22
57452;BME280;66031;51.224;-0.164;2023-02-12T01:47:21;102981.70;;;17.86;31.23
57452;BME280;66031;51.224;-0.164;2023-02-12T01:49:47;102977.87;;;17.86;31.25
57452;BME280;66031;51.224;-0.164;2023-02-12T01:52:14;102974.63;;;18.09;31.19
57452;BME280;66031;51.224;-0.164;2023-02-12T01:54:37;102976.69;;;17.85;31.17
57452;BME280;66031;51.224;-0.164;2023-02-12T01:57:04;102980.76;;;18.03;31.23
57452;BME280;66031;51.224;-0.164;2023-02-12T01:59:28;102979.88;;;18.01;31.24
57452;BME280;66031;51.224;-0.164;2023-02-12T02:01:54;102980.60;;;18.02;31.24
57452;BME280;66031;51.224;-0.164;2023-02-12T02:04:22;102982.02;;;17.94;31.29
57452;BME280;66031;51.224;-0.164;2023-02-12T02:06:49;102980.66;;;17.92;31.28
57452;BME280;66031;51.224;-0.164;2023-02-12T02:09:09;102980.39;;;17.98;31.22
57452;BME280;66031;51.224;-0.164;2023-02-12T02:11:34;102978.21;;;17.91;31.26
57452;BME280;66031;51.224;-0.164;2023-02-12T02:14:00;102982.04;;;17.91;31.23
57452;BME280;66031;51.224;-0.164;2023-02-12T02:16:27;102981.94;;;17.66;31.19
57452;BME280;66031;51.224;-0.164;2023-02-12T02:18:54;102981.05;;;18.25;31.08
57452;BME280;66031;51.224;-0.164;2023-02-12T02:21:29;102975.98;;;17.98;31.10
57452;BME280;66031;51.224;-0.164;2023-02-12T02:23:56;102976.16;;;17.95;31.10
57452;BME280;66031;51.224;-0.164;2023-02-12T02:31:02;102973.33;;;17.91;31.08
57452;BME280;66031;51.224;-0.164;2023-02-12T02:33:31;102968.94;;;17.59;31.10
57452;BME280;66031;51.224;-0.164;2023-02-12T02:35:54;102971.68;;;17.58;31.14
57452;BME280;66031;51.224;-0.164;2023-02-12T02:38:22;102975.13;;;18.00;31.17
57452;BME280;66031;51.224;-0.164;2023-02-12T02:40:42;102972.34;;;17.74;31.18
57452;BME280;66031;51.224;-0.164;2023-02-12T02:43:08;102969.74;;;17.74;31.15
57452;BME280;66031;51.224;-0.164;2023-02-12T02:45:35;102969.12;;;17.70;31.20
57452;BME280;66031;51.224;-0.164;2023-02-12T02:47:58;102970.88;;;17.94;31.18
57452;BME280;66031;51.224;-0.164;2023-02-12T02:50:23;102972.41;;;17.75;31.10
57452;BME280;66031;51.224;-0.164;2023-02-12T02:52:49;102969.35;;;17.73;31.13
57452;BME280;66031;51.224;-0.164;2023-02-12T02:55:15;102967.05;;;17.69;31.13
57452;BME280;66031;51.224;-0.164;2023-02-12T02:57:41;102969.97;;;17.69;31.11
57452;BME280;66031;51.224;-0.164;2023-02-12T03:00:06;102968.94;;;17.64;31.15
57452;BME280;66031;51.224;-0.164;2023-02-12T03:02:31;102969.81;;;17.70;31.10
57452;BME280;66031;51.224;-0.164;2023-02-12T03:04:56;102969.57;;;17.69;31.05
57452;BME280;66031;51.224;-0.164;2023-02-12T03:07:20;102968.00;;;17.66;31.07
57452;BME280;66031;51.224;-0.164;2023-02-12T03:09:46;102960.78;;;17.62;31.12
57452;BME280;66031;51.224;-0.164;2023-02-12T03:12:12;102961.71;;;17.74;30.99
57452;BME280;66031;51.224;-0.164;2023-02-12T03:14:38;102961.67;;;17.91;31.02
57452;BME280;66031;51.224;-0.164;2023-02-12T03:17:03;102959.56;;;17.68;31.01
57452;BME280;66031;51.224;-0.164;2023-02-12T03:19:28;102959.81;;;17.75;30.91
57452;BME280;66031;51.224;-0.164;2023-02-12T03:21:54;102957.55;;;17.65;31.01
57452;BME280;66031;51.224;-0.164;2023-02-12T03:24:20;102957.67;;;17.59;31.04
57452;BME280;66031;51.224;-0.164;2023-02-12T03:26:44;102956.98;;;17.81;31.06
57452;BME280;66031;51.224;-0.164;2023-02-12T03:29:06;102952.22;;;17.58;31.04
57452;BME280;66031;51.224;-0.164;2023-02-12T03:31:40;102952.29;;;17.71;30.89
57452;BME280;66031;51.224;-0.164;2023-02-12T03:34:05;102952.85;;;17.61;30.97
57452;BME280;66031;51.224;-0.164;2023-02-12T03:36:29;102950.15;;;17.58;30.98
57452;BME280;66031;51.224;-0.164;2023-02-12T03:38:50;102948.24;;;17.78;31.01
57452;BME280;66031;51.224;-0.164;2023-02-12T03:41:16;102947.28;;;17.46;31.08
57452;BME280;66031;51.224;-0.164;2023-02-12T03:43:46;102948.64;;;17.48;31.05
57452;BME280;66031;51.224;-0.164;2023-02-12T03:46:10;102949.81;;;17.68;31.10
57452;BME280;66031;51.224;-0.164;2023-02-12T03:48:34;102948.04;;;17.39;31.12
57452;BME280;66031;51.224;-0.164;2023-02-12T03:50:58;102946.15;;;17.40;31.09
57452;BME280;66031;51.224;-0.164;2023-02-12T03:53:20;102942.40;;;17.66;31.07
57452;BME280;66031;51.224;-0.164;2023-02-12T03:55:47;102945.74;;;17.35;31.13
57452;BME280;66031;51.224;-0.164;2023-02-12T03:58:15;102950.16;;;17.36;31.10
57452;BME280;66031;51.224;-0.164;2023-02-12T04:00:36;102946.78;;;17.56;31.14
57452;BME280;66031;51.224;-0.164;2023-02-12T04:03:02;102947.89;;;17.81;31.13
57452;BME280;66031;51.224;-0.164;2023-02-12T04:05:27;102947.96;;;17.57;31.09
57452;BME280;66031;51.224;-0.164;2023-02-12T04:07:54;102948.37;;;17.55;31.12
57452;BME280;66031;51.224;-0.164;2023-02-12T04:10:21;102947.76;;;17.24;31.16
57452;BME280;66031;51.224;-0.164;2023-02-12T04:12:50;102942.62;;;17.55;31.07
57452;BME280;66031;51.224;-0.164;2023-02-12T04:15:25;102941.50;;;17.28;31.10
57452;BME280;66031;51.224;-0.164;2023-02-12T04:17:39;102946.42;;;17.06;31.06
57452;BME280;66031;51.224;-0.164;2023-02-12T04:20:06;102951.01;;;17.38;30.97
57452;BME280;66031;51.224;-0.164;2023-02-12T04:22:35;102951.96;;;17.53;31.03
57452;BME280;66031;51.224;-0.164;2023-02-12T04:24:58;102951.16;;;17.48;31.09
57452;BME280;66031;51.224;-0.164;2023-02-12T04:27:21;102954.46;;;17.26;31.05
57452;BME280;66031;51.224;-0.164;2023-02-12T04:29:47;102956.17;;;17.52;31.02
57452;BME280;66031;51.224;-0.164;2023-02-12T04:32:11;102952.96;;;17.48;31.04
57452;BME280;66031;51.224;-0.164;2023-02-12T04:34:34;102955.78;;;17.46;31.05
57452;BME280;66031;51.224;-0.164;2023-02-12T04:36:59;102956.62;;;17.17;31.09
57452;BME280;66031;51.224;-0.164;2023-02-12T04:39:25;102957.05;;;17.35;31.14
57452;BME280;66031;51.224;-0.164;2023-02-12T04:41:48;102959.35;;;17.37;31.13
57452;BME280;66031;51.224;-0.164;2023-02-12T04:44:15;102954.68;;;17.32;31.16
57452;BME280;66031;51.224;-0.164;2023-02-12T04:46:38;102953.57;;;17.57;31.12
57452;BME280;66031;51.224;-0.164;2023-02-12T04:49:04;102953.14;;;17.61;31.08
57452;BME280;66031;51.224;-0.164;2023-02-12T04:51:30;102958.78;;;17.58;31.11
57452;BME280;66031;51.224;-0.164;2023-02-12T04:53:55;102957.42;;;17.55;31.13
57452;BME280;66031;51.224;-0.164;2023-02-12T04:56:20;102959.74;;;17.07;31.11
57452;BME280;66031;51.224;-0.164;2023-02-12T04:58:45;102955.93;;;17.06;31.11
57452;BME280;66031;51.224;-0.164;2023-02-12T05:01:11;102952.57;;;17.00;31.17
57452;BME280;66031;51.224;-0.164;2023-02-12T05:03:36;102952.57;;;17.03;31.12
57452;BME280;66031;51.224;-0.164;2023-02-12T05:06:03;102955.21;;;17.25;31.14
57452;BME280;66031;51.224;-0.164;2023-02-12T05:08:27;102954.43;;;17.49;31.12
57452;BME280;66031;51.224;-0.164;2023-02-12T05:10:52;102951.56;;;17.25;31.13
57452;BME280;66031;51.224;-0.164;2023-02-12T05:13:17;102950.87;;;17.21;31.15
57452;BME280;66031;51.224;-0.164;2023-02-12T05:15:43;102950.14;;;17.42;31.17
57452;BME280;66031;51.224;-0.164;2023-02-12T05:18:08;102950.93;;;17.26;31.08
57452;BME280;66031;51.224;-0.164;2023-02-12T05:20:34;102954.25;;;17.27;31.05
57452;BME280;66031;51.224;-0.164;2023-02-12T05:22:59;102950.41;;;17.21;31.10
57452;BME280;66031;51.224;-0.164;2023-02-12T05:25:25;102948.43;;;17.14;31.17
57452;BME280;66031;51.224;-0.164;2023-02-12T05:27:50;102948.12;;;16.85;31.20
57452;BME280;66031;51.224;-0.164;2023-02-12T05:30:16;102948.64;;;16.92;31.12
57452;BME280;66031;51.224;-0.164;2023-02-12T05:32:41;102947.59;;;16.93;31.10
57452;BME280;66031;51.224;-0.164;2023-02-12T05:35:07;102948.00;;;17.44;31.07
57452;BME280;66031;51.224;-0.164;2023-02-12T05:37:33;102946.15;;;17.13;31.13
57452;BME280;66031;51.224;-0.164;2023-02-12T05:39:57;102946.08;;;17.33;31.15
57452;BME280;66031;51.224;-0.164;2023-02-12T05:42:23;102950.11;;;17.35;31.13
57452;BME280;66031;51.224;-0.164;2023-02-12T05:44:48;102946.32;;;17.31;31.17
57452;BME280;66031;51.224;-0.164;2023-02-12T05:47:13;102943.32;;;17.30;31.16
57452;BME280;66031;51.224;-0.164;2023-02-12T05:49:40;102939.40;;;16.81;31.17
57452;BME280;66031;51.224;-0.164;2023-02-12T05:52:04;102943.09;;;17.05;31.16
57452;BME280;66031;51.224;-0.164;2023-02-12T05:54:30;102946.82;;;17.03;31.17
57452;BME280;66031;51.224;-0.164;2023-02-12T05:56:55;102946.66;;;17.08;31.10
57452;BME280;66031;51.224;-0.164;2023-02-12T05:59:22;102947.30;;;17.32;31.10
57452;BME280;66031;51.224;-0.164;2023-02-12T06:01:48;102949.98;;;17.03;31.15
57452;BME280;66031;51.224;-0.164;2023-02-12T06:04:13;102950.90;;;17.05;31.11
57452;BME280;66031;51.224;-0.164;2023-02-12T06:06:37;102945.36;;;17.02;31.13
57452;BME280;66031;51.224;-0.164;2023-02-12T06:09:02;102946.36;;;17.00;31.14
57452;BME280;66031;51.224;-0.164;2023-02-12T06:11:27;102949.58;;;17.24;31.14
57452;BME280;66031;51.224;-0.164;2023-02-12T06:13:53;102949.94;;;17.23;31.14
57452;BME280;66031;51.224;-0.164;2023-02-12T06:16:20;102947.45;;;17.20;31.16
57452;BME280;66031;51.224;-0.164;2023-02-12T06:18:44;102944.53;;;17.07;31.02
57452;BME280;66031;51.224;-0.164;2023-02-12T06:21:09;102946.24;;;17.26;31.06
57452;BME280;66031;51.224;-0.164;2023-02-12T06:23:34;102946.60;;;17.03;31.07
57452;BME280;66031;51.224;-0.164;2023-02-12T06:26:00;102944.94;;;17.00;31.08
57452;BME280;66031;51.224;-0.164;2023-02-12T06:28:25;102943.94;;;16.81;31.01
57452;BME280;66031;51.224;-0.164;2023-02-12T06:30:51;102940.85;;;17.27;31.02
57452;BME280;66031;51.224;-0.164;2023-02-12T06:33:16;102944.28;;;17.03;31.06
57452;BME280;66031;51.224;-0.164;2023-02-12T06:35:41;102943.81;;;17.33;31.09
57452;BME280;66031;51.224;-0.164;2023-02-12T06:38:08;102951.34;;;17.22;30.72
57452;BME280;66031;51.224;-0.164;2023-02-12T06:40:32;102952.16;;;17.93;30.26
57452;BME280;66031;51.224;-0.164;2023-02-12T06:42:58;102947.43;;;18.11;29.82
57452;BME280;66031;51.224;-0.164;2023-02-12T06:45:23;102949.43;;;18.61;29.36
57452;BME280;66031;51.224;-0.164;2023-02-12T06:47:48;102946.89;;;18.61;29.08
57452;BME280;66031;51.224;-0.164;2023-02-12T06:50:14;102942.59;;;19.40;28.73
57452;BME280;66031;51.224;-0.164;2023-02-12T06:52:39;102942.62;;;19.16;28.79
57452;BME280;66031;51.224;-0.164;2023-02-12T06:55:05;102949.31;;;18.99;28.78
57452;BME280;66031;51.224;-0.164;2023-02-12T06:57:30;102950.90;;;19.39;28.60
57452;BME280;66031;51.224;-0.164;2023-02-12T06:59:55;102947.27;;;19.25;28.52
57452;BME280;66031;51.224;-0.164;2023-02-12T07:02:21;102944.06;;;19.38;28.42
57452;BME280;66031;51.224;-0.164;2023-02-12T07:04:46;102945.21;;;19.17;28.43
57452;BME280;66031;51.224;-0.164;2023-02-12T07:07:11;102947.57;;;19.34;28.32
57452;BME280;66031;51.224;-0.164;2023-02-12T07:09:37;102947.83;;;19.44;28.32
57452;BME280;66031;51.224;-0.164;2023-02-12T07:12:02;102950.91;;;19.51;28.30
57452;BME280;66031;51.224;-0.164;2023-02-12T07:14:27;102950.02;;;19.78;28.31
57452;BME280;66031;51.224;-0.164;2023-02-12T07:16:53;102949.89;;;19.61;28.24
57452;BME280;66031;51.224;-0.164;2023-02-12T07:19:18;102950.53;;;19.93;28.19
57452;BME280;66031;51.224;-0.164;2023-02-12T07:21:43;102950.44;;;19.76;28.56
57452;BME280;66031;51.224;-0.164;2023-02-12T07:24:10;102953.36;;;19.93;28.54
57452;BME280;66031;51.224;-0.164;2023-02-12T07:26:34;102954.01;;;20.07;28.31
57452;BME280;66031;51.224;-0.164;2023-02-12T07:28:59;102953.86;;;19.75;28.39
57452;BME280;66031;51.224;-0.164;2023-02-12T07:31:25;102957.46;;;19.93;28.36
57452;BME280;66031;51.224;-0.164;2023-02-12T07:33:53;102960.09;;;20.26;28.30
57452;BME280;66031;51.224;-0.164;2023-02-12T07:36:17;102959.43;;;20.05;28.30
57452;BME280;66031;51.224;-0.164;2023-02-12T07:38:42;102960.02;;;20.11;28.45
57452;BME280;66031;51.224;-0.164;2023-02-12T07:41:09;102965.10;;;20.23;28.43
57452;BME280;66031;51.224;-0.164;2023-02-12T07:43:32;102965.03;;;20.48;28.38
57452;BME280;66031;51.224;-0.164;2023-02-12T07:46:07;102964.14;;;20.50;28.47
57452;BME280;66031;51.224;-0.164;2023-02-12T07:48:23;102965.51;;;20.63;28.37
57452;BME280;66031;51.224;-0.164;2023-02-12T07:50:48;102968.25;;;20.72;28.39
57452;BME280;66031;51.224;-0.164;2023-02-12T07:53:14;102966.23;;;20.12;28.56
57452;BME280;66031;51.224;-0.164;2023-02-12T07:55:39;102960.93;;;20.66;28.55
57452;BME280;66031;51.224;-0.164;2023-02-12T07:58:04;102964.22;;;20.79;28.49
57452;BME280;66031;51.224;-0.164;2023-02-12T08:00:30;102968.71;;;20.68;28.22
57452;BME280;66031;51.224;-0.164;2023-02-12T08:02:55;102968.58;;;20.50;28.63
57452;BME280;66031;51.224;-0.164;2023-02-12T08:05:20;102965.66;;;20.72;28.44
57452;BME280;66031;51.224;-0.164;2023-02-12T08:07:46;102962.98;;;20.79;28.39
57452;BME280;66031;51.224;-0.164;2023-02-12T08:10:11;102966.12;;;20.73;28.41
57452;BME280;66031;51.224;-0.164;2023-02-12T08:12:37;102965.68;;;20.60;28.55
57452;BME280;66031;51.224;-0.164;2023-02-12T08:15:03;102972.38;;;20.91;28.32
57452;BME280;66031;51.224;-0.164;2023-02-12T08:17:28;102976.04;;;20.78;28.18
57452;BME280;66031;51.224;-0.164;2023-02-12T08:19:54;102974.68;;;20.92;28.04
57452;BME280;66031;51.224;-0.164;2023-02-12T08:22:18;102970.92;;;20.80;28.17
57452;BME280;66031;51.224;-0.164;2023-02-12T08:24:44;102971.47;;;20.74;28.22
57452;BME280;66031;51.224;-0.164;2023-02-12T08:27:09;102971.18;;;21.00;28.19
57452;BME280;66031;51.224;-0.164;2023-02-12T08:29:35;102971.47;;;21.11;28.12
57452;BME280;66031;51.224;-0.164;2023-02-12T08:32:02;102971.25;;;21.02;28.08
57452;BME280;66031;51.224;-0.164;2023-02-12T08:34:27;102969.81;;;20.77;28.02
57452;BME280;66031;51.224;-0.164;2023-02-12T08:36:52;102972.99;;;20.07;29.16
57452;BME280;66031;51.224;-0.164;2023-02-12T08:39:17;102977.23;;;19.90;29.40
57452;BME280;66031;51.224;-0.164;2023-02-12T08:41:42;102971.51;;;20.03;29.51
57452;BME280;66031;51.224;-0.164;2023-02-12T08:44:08;102967.26;;;19.96;29.40
57452;BME280;66031;51.224;-0.164;2023-02-12T08:46:34;102973.32;;;20.19;29.57
57452;BME280;66031;51.224;-0.164;2023-02-12T08:49:00;102979.30;;;20.13;29.57
57452;BME280;66031;51.224;-0.164;2023-02-12T08:51:25;102985.13;;;20.22;29.43
57452;BME280;66031;51.224;-0.164;2023-02-12T08:53:51;102983.54;;;20.18;29.45
57452;BME280;66031;51.224;-0.164;2023-02-12T08:56:16;102988.61;;;19.90;29.83
57452;BME280;66031;51.224;-0.164;2023-02-12T08:58:40;102985.06;;;19.88;29.82
57452;BME280;66031;51.224;-0.164;2023-02-12T09:01:09;102984.20;;;20.09;30.05
57452;BME280;66031;51.224;-0.164;2023-02-12T09:03:30;102988.88;;;19.64;29.97
57452;BME280;66031;51.224;-0.164;2023-02-12T09:05:56;102993.28;;;19.96;30.20
57452;BME280;66031;51.224;-0.164;2023-02-12T09:08:21;102989.45;;;20.19;30.06
57452;BME280;66031;51.224;-0.164;2023-02-12T09:10:46;102988.16;;;19.09;30.54
57452;BME280;66031;51.224;-0.164;2023-02-12T09:13:12;102997.50;;;19.63;30.59
57452;BME280;66031;51.224;-0.164;2023-02-12T09:15:36;102996.06;;;19.28;30.76
57452;BME280;66031;51.224;-0.164;2023-02-12T09:18:01;102996.50;;;19.72;30.29
57452;BME280;66031;51.224;-0.164;2023-02-12T09:20:27;103001.31;;;20.17;30.10
57452;BME280;66031;51.224;-0.164;2023-02-12T09:22:52;103001.55;;;19.58;31.42
57452;BME280;66031;51.224;-0.164;2023-02-12T09:25:18;102998.09;;;20.13;30.42
57452;BME280;66031;51.224;-0.164;2023-02-12T09:27:43;102995.04;;;19.51;30.54
57452;BME280;66031;51.224;-0.164;2023-02-12T09:30:09;102996.57;;;19.77;30.87
57452;BME280;66031;51.224;-0.164;2023-02-12T09:32:34;102994.52;;;20.35;30.11
57452;BME280;66031;51.224;-0.164;2023-02-12T09:34:59;102993.22;;;20.66;29.38
57452;BME280;66031;51.224;-0.164;2023-02-12T09:37:25;102995.64;;;20.39;29.74
57452;BME280;66031;51.224;-0.164;2023-02-12T09:39:50;102999.58;;;20.52;30.19
57452;BME280;66031;51.224;-0.164;2023-02-12T09:42:27;102994.57;;;20.54;29.66
57452;BME280;66031;51.224;-0.164;2023-02-12T09:44:45;102995.78;;;20.66;29.40
57452;BME280;66031;51.224;-0.164;2023-02-12T09:47:14;102999.30;;;21.12;28.87
57452;BME280;66031;51.224;-0.164;2023-02-12T09:49:40;103000.81;;;21.05;28.65
57452;BME280;66031;51.224;-0.164;2023-02-12T09:51:57;102999.14;;;21.26;28.65
57452;BME280;66031;51.224;-0.164;2023-02-12T09:54:25;102998.99;;;21.18;28.71
57452;BME280;66031;51.224;-0.164;2023-02-12T09:56:50;102999.23;;;21.11;28.76
57452;BME280;66031;51.224;-0.164;2023-02-12T09:59:18;102999.04;;;21.16;28.52
57452;BME280;66031;51.224;-0.164;2023-02-12T10:01:38;102998.40;;;21.32;28.48
57452;BME280;66031;51.224;-0.164;2023-02-12T10:04:04;102999.01;;;21.26;28.57
57452;BME280;66031;51.224;-0.164;2023-02-12T10:06:32;102997.25;;;21.28;28.53
57452;BME280;66031;51.224;-0.164;2023-02-12T10:09:01;102997.93;;;21.07;28.54
57452;BME280;66031;51.224;-0.164;2023-02-12T10:11:32;102998.05;;;20.64;29.43
57452;BME280;66031;51.224;-0.164;2023-02-12T10:13:50;102997.14;;;21.32;28.79
57452;BME280;66031;51.224;-0.164;2023-02-12T10:16:18;102996.28;;;21.35;28.84
57452;BME280;66031;51.224;-0.164;2023-02-12T10:18:45;102996.46;;;21.31;28.78
57452;BME280;66031;51.224;-0.164;2023-02-12T10:21:10;102996.98;;;20.60;29.56
57452;BME280;66031;51.224;-0.164;2023-02-12T10:23:39;103003.48;;;21.23;29.36
57452;BME280;66031;51.224;-0.164;2023-02-12T10:25:53;103006.13;;;21.04;29.80
57452;BME280;66031;51.224;-0.164;2023-02-12T10:28:20;103004.93;;;20.72;29.76
57452;BME280;66031;51.224;-0.164;2023-02-12T10:30:47;103007.81;;;21.36;29.30
57452;BME280;66031;51.224;-0.164;2023-02-12T10:33:13;103006.60;;;20.42;30.25
57452;BME280;66031;51.224;-0.164;2023-02-12T10:35:33;103006.02;;;21.22;29.20
57452;BME280;66031;51.224;-0.164;2023-02-12T10:38:03;103007.16;;;21.16;29.15
57452;BME280;66031;51.224;-0.164;2023-02-12T10:40:25;103008.47;;;20.36;29.86
57452;BME280;66031;51.224;-0.164;2023-02-12T10:42:49;103005.78;;;19.93;30.22
57452;BME280;66031;51.224;-0.164;2023-02-12T10:45:16;103012.68;;;20.04;30.13
57452;BME280;66031;51.224;-0.164;2023-02-12T10:47:39;103012.40;;;20.54;29.98
57452;BME280;66031;51.224;-0.164;2023-02-12T10:50:16;103009.23;;;20.39;30.48
57452;BME280;66031;51.224;-0.164;2023-02-12T10:52:38;103008.77;;;20.12;30.81
57452;BME280;66031;51.224;-0.164;2023-02-12T10:54:55;103009.31;;;20.08;31.07
57452;BME280;66031;51.224;-0.164;2023-02-12T10:57:22;103011.91;;;19.79;31.25
57452;BME280;66031;51.224;-0.164;2023-02-12T10:59:47;103008.83;;;19.49;31.57
57452;BME280;66031;51.224;-0.164;2023-02-12T11:02:20;103004.95;;;19.31;31.25
57452;BME280;66031;51.224;-0.164;2023-02-12T11:04:36;103002.51;;;19.56;31.46
57452;BME280;66031;51.224;-0.164;2023-02-12T11:07:04;103002.91;;;19.56;31.21
57452;BME280;66031;51.224;-0.164;2023-02-12T11:09:28;103001.21;;;19.36;31.37
57452;BME280;66031;51.224;-0.164;2023-02-12T11:11:52;103000.49;;;19.38;31.70
57452;BME280;66031;51.224;-0.164;2023-02-12T11:14:19;102999.51;;;19.61;31.32
57452;BME280;66031;51.224;-0.164;2023-02-12T11:16:50;102992.88;;;19.46;31.34
57452;BME280;66031;51.224;-0.164;2023-02-12T11:19:17;102990.65;;;19.46;30.15
57452;BME280;66031;51.224;-0.164;2023-02-12T11:21:34;102989.49;;;19.32;30.69
57452;BME280;66031;51.224;-0.164;2023-02-12T11:26:26;102991.88;;;19.04;31.10
57452;BME280;66031;51.224;-0.164;2023-02-12T11:28:53;102988.15;;;18.79;31.23
57452;BME280;66031;51.224;-0.164;2023-02-12T11:31:20;102984.03;;;19.33;31.15
57452;BME280;66031;51.224;-0.164;2023-02-12T11:33:40;102982.77;;;19.04;31.18
57452;BME280;66031;51.224;-0.164;2023-02-12T11:36:13;102983.04;;;19.27;31.15
57452;BME280;66031;51.224;-0.164;2023-02-12T11:38:34;102978.50;;;19.25;31.13
57452;BME280;66031;51.224;-0.164;2023-02-12T11:41:00;102969.31;;;18.90;31.21
57452;BME280;66031;51.224;-0.164;2023-02-12T11:43:21;102974.28;;;19.16;31.12
57452;BME280;66031;51.224;-0.164;2023-02-12T11:45:48;102978.52;;;18.89;31.09
57452;BME280;66031;51.224;-0.164;2023-02-12T11:48:17;102975.72;;;18.86;31.09
57452;BME280;66031;51.224;-0.164;2023-02-12T11:50:37;102971.57;;;19.08;31.05
57452;BME280;66031;51.224;-0.164;2023-02-12T11:53:05;102975.44;;;18.96;31.15
57452;BME280;66031;51.224;-0.164;2023-02-12T11:55:30;102976.43;;;18.90;31.19
57452;BME280;66031;51.224;-0.164;2023-02-12T11:58:01;102974.09;;;18.62;31.23
57452;BME280;66031;51.224;-0.164;2023-02-12T12:00:23;102971.47;;;18.81;31.24
57452;BME280;66031;51.224;-0.164;2023-02-12T12:02:49;102968.47;;;18.52;31.27
57452;BME280;66031;51.224;-0.164;2023-02-12T12:05:14;102963.41;;;18.76;31.24
57452;BME280;66031;51.224;-0.164;2023-02-12T12:07:38;102963.05;;;18.52;31.18
57452;BME280;66031;51.224;-0.164;2023-02-12T12:10:04;102964.98;;;18.76;31.12
57452;BME280;66031;51.224;-0.164;2023-02-12T12:12:30;102962.26;;;18.67;31.19
57452;BME280;66031;51.224;-0.164;2023-02-12T12:14:53;102955.73;;;18.41;31.15
57452;BME280;66031;51.224;-0.164;2023-02-12T12:17:16;102949.48;;;18.44;31.08
57452;BME280;66031;51.224;-0.164;2023-02-12T12:19:47;102950.32;;;18.85;30.86
57452;BME280;66031;51.224;-0.164;2023-02-12T12:22:13;102946.26;;;18.83;30.82
57452;BME280;66031;51.224;-0.164;2023-02-12T12:24:39;102940.08;;;18.70;30.93
57452;BME280;66031;51.224;-0.164;2023-02-12T12:27:01;102938.31;;;18.63;30.96
57452;BME280;66031;51.224;-0.164;2023-02-12T12:29:27;102937.48;;;17.74;30.89
57452;BME280;66031;51.224;-0.164;2023-02-12T12:31:51;102936.06;;;18.84;29.68
57452;BME280;66031;51.224;-0.164;2023-02-12T12:34:18;102929.93;;;19.26;29.87
57452;BME280;66031;51.224;-0.164;2023-02-12T12:36:50;102928.03;;;18.89;30.23
57452;BME280;66031;51.224;-0.164;2023-02-12T12:39:14;102926.71;;;18.87;30.53